Weather at Chicago Midway International Airport

Public forecast

Using degrees Fahrenheit for public forecast. Weather courtesy of forecast.io.

Current aviation weather report (METAR) for Chicago Midway International Airport

Report is more than 2 hours old.

Retrieved 2021/03/01 16:53 UTC (2 hours ago):

KMDW 011653Z 32010KT 10SM FEW035 FEW090 FEW250 01/M08 A3022 RMK AO2 SLP244 T00061083

Aviation forecast (TAF) for Chicago Midway International Airport

Forecast is more than 6 hours old.

Retrieved 2021/03/01 12:22 UTC (7 hours ago):

TAF KMDW 011120Z 0112/0218 30013KT P6SM BKN100 FM011700 33013KT P6SM BKN035 FM012100 35009KT P6SM SKC FM020400 18003KT P6SM SKC FM021500 20012G22KT P6SM SKC